Aérodrome :
LOGIN :

S'inscrire | Disclaimer

   EN    FR    IT 

 










Légende :    VFR   VFR Marginal   IFR   IFR Intensif   IFR Très Intensif
Visi : 
Plafond : 
>= 8 km
>= 3000ft
5 à 8 km
1000 à 3000 ft
1500m à 5 km
500 à 1000 ft
800 à 1500m
200 à 500 ft
< 800m
< 200 ft
Symboles :   Orages  Brouillard  Fortes neiges  Fortes précipitations  Vent > 20 kt
SIGMETs :   Divers  Orages  Givrage  Turbulence  Onde Orograph.  Cendres Volcan.







- Altitude de l'aérodrome : 1910 ft
- Code IATA : RDZ
- Voir les cartes d'approche


LFCR - Rodez

DERNIER METAR :
  • 172300Z AUTO 31011KT 9999 OVC007 04/03 Q1024 BECMG 4000 BR BKN003

METARs EXPIRÉS :
  • 172230Z AUTO 30010KT 9999 OVC007 04/03 Q1024 BECMG 4000 BR BKN003
  • 172200Z AUTO 30010KT 9999 BKN007 OVC011 04/03 Q1024 BECMG 4000 BR BKN003
  • 172130Z AUTO 31008KT 7000 -RA BKN013 OVC020 04/03 Q1024 BECMG 4000 BR BKN003
  • 172100Z AUTO 30008KT 9999 FEW009 OVC021 04/03 Q1024 BECMG 4000 BR BKN003
  • 172030Z AUTO 30012KT 9999 // SCT009/// BKN015/// BKN023/// ///TCU 04/03 Q1023

TAF TAF LFCR
Valide du 17 à 18h jusqu'au 18 à 18h UTC


171700Z 1718/1818 31010KT 9999 SCT015 BKN025
TEMPO 1718/1722 4000 -RADZ BKN006
BECMG 1722/1724 4000 BR BKN003
BECMG 1808/1810 9999 NSW BKN008
BECMG 1811/1813 SCT025
Pas de NOTAMs connus pour ce terrain.



MET'MAP, la Météo Aéronautique d'un coup d'oeil ! - Copyright ORBIFLY Décembre 2007 - Disclaimer

ORBIFLY MET'MAP TEAM :

Programmation & Développement : Alexandra Zaïnal
Conception & Développement : Baudouin d'Aumeries
Co-Programmation & Développement : Marc-Olivier Méhu
Soutien technique & logistique : Manuel Goepfert

Contact : metmap@orbifly.com




SOURCES & CREDITS :

   NOAA